createdAt,value
2023-04-01T00:00:19.812Z,1.39
2023-04-01T00:00:51.211Z,1.64
2023-04-01T00:01:22.618Z,1.50
2023-04-01T00:01:54.005Z,1.26
2023-04-01T00:02:25.479Z,1.44
2023-04-01T00:02:56.998Z,1.77
2023-04-01T00:03:28.630Z,1.47
2023-04-01T00:04:00.226Z,1.44
2023-04-01T00:04:31.727Z,1.41
2023-04-01T00:05:03.370Z,1.51
2023-04-01T00:05:34.994Z,1.78
2023-04-01T00:06:06.491Z,1.67
2023-04-01T00:06:37.892Z,1.73
2023-04-01T00:07:09.302Z,1.37
2023-04-01T00:07:40.716Z,1.22
2023-04-01T00:08:12.131Z,1.42
2023-04-01T00:08:43.528Z,1.79
2023-04-01T00:09:14.921Z,1.63
2023-04-01T00:09:46.299Z,1.57
2023-04-01T00:10:17.690Z,1.26
2023-04-01T00:10:49.124Z,1.65
2023-04-01T00:11:20.777Z,1.55
2023-04-01T00:11:52.248Z,1.47
2023-04-01T00:12:23.643Z,1.47
2023-04-01T00:12:55.037Z,1.45
2023-04-01T00:13:26.450Z,1.43
2023-04-01T00:13:57.856Z,1.49
2023-04-01T00:14:29.251Z,1.72
2023-04-01T00:15:00.719Z,1.56
2023-04-01T00:15:32.346Z,1.48
2023-04-01T00:16:04.060Z,1.32
2023-04-01T00:16:41.375Z,1.45
2023-04-01T00:17:12.837Z,1.76
2023-04-01T00:17:44.273Z,1.74
2023-04-01T00:18:15.745Z,1.62
2023-04-01T00:18:47.182Z,1.49
2023-04-01T00:19:18.586Z,1.17
2023-04-01T00:19:49.985Z,1.35
2023-04-01T00:20:21.394Z,1.39
2023-04-01T00:20:52.795Z,1.55
2023-04-01T00:21:24.217Z,1.50
2023-04-01T00:21:55.665Z,1.37
2023-04-01T00:22:27.077Z,1.26
2023-04-01T00:22:58.476Z,1.10
2023-04-01T00:23:29.862Z,1.29
2023-04-01T00:24:01.270Z,1.27
2023-04-01T00:24:32.662Z,1.24
2023-04-01T00:25:04.046Z,2.03
2023-04-01T00:25:35.661Z,1.42
2023-04-01T00:26:07.120Z,1.65
2023-04-01T00:26:38.551Z,1.36
2023-04-01T00:27:09.979Z,1.50
2023-04-01T00:27:41.383Z,1.24
2023-04-01T00:28:12.784Z,1.57
2023-04-01T00:28:44.187Z,1.81
2023-04-01T00:29:15.598Z,1.64
2023-04-01T00:29:47.006Z,1.11
2023-04-01T00:30:18.408Z,1.27
2023-04-01T00:30:49.825Z,1.54
2023-04-01T00:31:21.278Z,1.75
2023-04-01T00:31:52.712Z,1.51
2023-04-01T00:32:24.267Z,1.46
2023-04-01T00:32:55.741Z,1.29
2023-04-01T00:33:27.161Z,1.31
2023-04-01T00:33:58.549Z,1.34
2023-04-01T00:34:29.945Z,1.23
2023-04-01T00:35:01.411Z,1.41
2023-04-01T00:35:33.044Z,1.50
2023-04-01T00:36:04.651Z,1.50
2023-04-01T00:36:36.094Z,1.43
2023-04-01T00:37:07.524Z,1.25
2023-04-01T00:37:38.981Z,1.66
2023-04-01T00:38:10.378Z,1.23
2023-04-01T00:38:41.796Z,1.10
2023-04-01T00:39:13.213Z,1.09
2023-04-01T00:39:44.635Z,1.20
2023-04-01T00:40:16.052Z,1.15
2023-04-01T00:40:47.465Z,1.38
2023-04-01T00:41:18.868Z,1.46
2023-04-01T00:41:50.257Z,1.62
2023-04-01T00:42:21.648Z,1.19
2023-04-01T00:42:53.087Z,1.13
2023-04-01T00:43:24.504Z,1.28
2023-04-01T00:43:55.920Z,1.36
2023-04-01T00:44:27.326Z,1.48
2023-04-01T00:44:58.748Z,1.30
2023-04-01T00:45:30.268Z,1.15
2023-04-01T00:46:01.754Z,1.53
2023-04-01T00:46:33.210Z,1.59
2023-04-01T00:47:04.744Z,1.49
2023-04-01T00:47:36.231Z,1.38
2023-04-01T00:48:07.758Z,1.10
2023-04-01T00:48:39.218Z,1.27
2023-04-01T00:49:10.639Z,1.39
2023-04-01T00:49:42.049Z,1.40
2023-04-01T00:50:13.445Z,0.94
2023-04-01T00:50:44.868Z,1.05
2023-04-01T00:51:16.291Z,1.22
2023-04-01T00:51:47.697Z,1.42
2023-04-01T00:52:19.098Z,1.43
2023-04-01T00:52:50.495Z,1.47
2023-04-01T00:53:21.939Z,1.38
2023-04-01T00:53:53.358Z,1.42
2023-04-01T00:54:24.771Z,1.18
2023-04-01T00:54:56.174Z,1.46
2023-04-01T00:55:27.571Z,1.96
2023-04-01T00:55:58.995Z,1.50
2023-04-01T00:56:30.390Z,1.31
2023-04-01T00:57:01.908Z,1.34
2023-04-01T00:57:33.430Z,1.50
2023-04-01T00:58:04.856Z,1.28
2023-04-01T00:58:36.294Z,1.26
2023-04-01T00:59:07.688Z,0.98
2023-04-01T00:59:39.094Z,0.99
2023-04-01T01:00:10.500Z,1.32
2023-04-01T01:00:41.943Z,1.10
2023-04-01T01:01:13.445Z,1.38
2023-04-01T01:01:44.898Z,1.30
2023-04-01T01:02:16.407Z,1.32
2023-04-01T01:02:47.984Z,1.29
2023-04-01T01:03:19.546Z,1.39
2023-04-01T01:03:51.015Z,1.36
2023-04-01T01:04:22.439Z,1.03
2023-04-01T01:04:53.844Z,1.10
2023-04-01T01:05:25.561Z,1.48
2023-04-01T01:05:57.689Z,1.10
2023-04-01T01:06:29.095Z,1.30
2023-04-01T01:07:00.523Z,1.30
2023-04-01T01:07:31.934Z,1.08
2023-04-01T01:08:03.346Z,1.27
2023-04-01T01:08:34.743Z,1.20
2023-04-01T01:09:06.199Z,1.11
2023-04-01T01:09:37.616Z,1.13
2023-04-01T01:10:09.026Z,1.36
2023-04-01T01:10:40.422Z,1.12
2023-04-01T01:11:11.818Z,1.17
2023-04-01T01:11:44.120Z,1.35
2023-04-01T01:12:15.665Z,1.42
2023-04-01T01:12:47.067Z,1.31
2023-04-01T01:13:18.482Z,1.22
2023-04-01T01:13:49.893Z,1.48
2023-04-01T01:14:21.334Z,1.20
2023-04-01T01:14:52.761Z,1.17
2023-04-01T01:15:24.178Z,1.33
2023-04-01T01:15:55.584Z,0.98
2023-04-01T01:16:27.016Z,1.40
2023-04-01T01:16:58.760Z,1.13
2023-04-01T01:17:30.274Z,1.17
2023-04-01T01:18:01.793Z,1.02
2023-04-01T01:18:33.221Z,0.85
2023-04-01T01:19:04.615Z,1.19
2023-04-01T01:19:36.056Z,1.32
2023-04-01T01:20:12.747Z,1.23
2023-04-01T01:20:54.315Z,1.00
2023-04-01T01:21:25.719Z,1.00
2023-04-01T01:21:57.134Z,1.08
2023-04-01T01:22:28.568Z,1.27
2023-04-01T01:22:59.971Z,0.98
2023-04-01T01:23:31.389Z,1.06
2023-04-01T01:24:02.791Z,1.47
2023-04-01T01:24:34.220Z,1.20
2023-04-01T01:25:05.666Z,1.50
2023-04-01T01:25:37.088Z,1.19
2023-04-01T01:26:08.500Z,1.07
2023-04-01T01:26:39.919Z,0.95
2023-04-01T01:27:11.344Z,1.08
2023-04-01T01:27:42.753Z,1.17
2023-04-01T01:28:14.152Z,0.91
2023-04-01T01:28:45.542Z,1.04
2023-04-01T01:29:16.937Z,0.90
2023-04-01T01:29:48.349Z,1.11
2023-04-01T01:30:19.782Z,1.43
2023-04-01T01:30:51.294Z,1.37
2023-04-01T01:31:22.874Z,1.16
2023-04-01T01:31:54.405Z,1.13
2023-04-01T01:32:25.929Z,1.31
2023-04-01T01:32:57.457Z,1.07
2023-04-01T01:33:28.920Z,1.17
2023-04-01T01:34:00.320Z,1.09
2023-04-01T01:34:31.717Z,1.72
2023-04-01T01:35:03.135Z,1.15
2023-04-01T01:35:34.836Z,0.95
2023-04-01T01:36:06.533Z,1.02
2023-04-01T01:36:37.929Z,0.73
2023-04-01T01:37:09.338Z,0.90
2023-04-01T01:37:40.749Z,1.11
2023-04-01T01:38:12.142Z,0.94
2023-04-01T01:38:43.560Z,1.11
2023-04-01T01:39:14.988Z,1.09
2023-04-01T01:39:46.396Z,1.42
2023-04-01T01:40:17.910Z,1.45
2023-04-01T01:40:49.337Z,1.11
2023-04-01T01:41:20.832Z,1.17
2023-04-01T01:41:52.248Z,1.16
2023-04-01T01:42:23.684Z,1.07
2023-04-01T01:42:55.114Z,0.91
2023-04-01T01:43:26.526Z,0.96
2023-04-01T01:43:57.923Z,0.95
2023-04-01T01:44:29.346Z,0.95
2023-04-01T01:45:00.741Z,1.51
2023-04-01T01:45:32.344Z,1.15
2023-04-01T01:46:03.964Z,1.12
2023-04-01T01:46:35.389Z,1.05
2023-04-01T01:47:06.833Z,1.08
2023-04-01T01:47:38.339Z,1.04
2023-04-01T01:48:09.905Z,1.11
2023-04-01T01:48:41.344Z,1.23
2023-04-01T01:49:12.760Z,1.21
2023-04-01T01:49:44.180Z,1.05
2023-04-01T01:50:15.599Z,0.95
2023-04-01T01:50:47.056Z,1.07
2023-04-01T01:51:18.474Z,0.97
2023-04-01T01:51:49.905Z,1.25
2023-04-01T01:52:21.314Z,1.05
2023-04-01T01:52:52.736Z,0.92
2023-04-01T01:53:24.186Z,1.05
2023-04-01T01:53:55.619Z,1.09
2023-04-01T01:54:27.027Z,1.00
2023-04-01T01:54:58.430Z,1.12
2023-04-01T01:55:30.139Z,1.37
2023-04-01T01:56:01.723Z,1.38
2023-04-01T01:56:33.130Z,1.18
2023-04-01T01:57:04.564Z,1.07
2023-04-01T01:57:36.055Z,0.77
2023-04-01T01:58:07.513Z,1.27
2023-04-01T01:58:38.925Z,1.10
2023-04-01T01:59:10.333Z,1.05
2023-04-01T01:59:41.826Z,0.88
2023-04-01T02:00:13.233Z,0.86
2023-04-01T02:00:44.637Z,1.49
2023-04-01T02:01:16.084Z,1.01
2023-04-01T02:01:47.628Z,1.18
2023-04-01T02:02:19.085Z,0.96
2023-04-01T02:02:50.498Z,0.92
2023-04-01T02:03:21.961Z,0.92
2023-04-01T02:03:53.364Z,0.87
2023-04-01T02:04:24.846Z,1.10
2023-04-01T02:04:56.399Z,1.11
2023-04-01T02:05:27.903Z,1.16
2023-04-01T02:05:59.316Z,1.29
2023-04-01T02:06:30.772Z,1.06
2023-04-01T02:07:02.179Z,1.24
2023-04-01T02:07:33.594Z,1.17
2023-04-01T02:08:05.016Z,1.18
2023-04-01T02:08:36.440Z,0.97
2023-04-01T02:09:07.873Z,1.01
2023-04-01T02:09:39.315Z,0.80
2023-04-01T02:10:10.723Z,0.63
2023-04-01T02:10:42.131Z,0.96
2023-04-01T02:11:13.563Z,1.12
2023-04-01T02:11:45.052Z,1.02
2023-04-01T02:12:16.479Z,1.07
2023-04-01T02:12:47.886Z,0.82
2023-04-01T02:13:19.298Z,0.90
2023-04-01T02:13:50.718Z,0.85
2023-04-01T02:14:22.113Z,0.99
2023-04-01T02:14:53.516Z,0.83
2023-04-01T02:15:24.922Z,1.06
2023-04-01T02:15:56.332Z,1.01
2023-04-01T02:16:27.939Z,0.92
2023-04-01T02:16:59.506Z,1.03
2023-04-01T02:17:30.965Z,0.83
2023-04-01T02:18:02.409Z,0.90
2023-04-01T02:18:33.910Z,0.96
2023-04-01T02:19:05.381Z,1.01
2023-04-01T02:19:36.793Z,0.94
2023-04-01T02:20:08.266Z,0.99
2023-04-01T02:20:39.689Z,0.86
2023-04-01T02:21:11.094Z,1.05
2023-04-01T02:21:42.516Z,1.00
2023-04-01T02:22:13.957Z,0.91
2023-04-01T02:22:45.426Z,1.04
2023-04-01T02:23:16.853Z,0.89
2023-04-01T02:23:48.249Z,1.17
2023-04-01T02:24:19.647Z,0.77
2023-04-01T02:24:51.048Z,1.07
2023-04-01T02:25:22.451Z,1.30
2023-04-01T02:25:53.848Z,0.83
2023-04-01T02:26:25.243Z,1.06
2023-04-01T02:26:56.665Z,0.88
2023-04-01T02:27:28.104Z,1.21
2023-04-01T02:27:59.524Z,1.04
2023-04-01T02:28:30.937Z,1.23
2023-04-01T02:29:02.375Z,1.12
2023-04-01T02:29:33.778Z,1.25
2023-04-01T02:30:05.212Z,1.15
2023-04-01T02:30:36.631Z,0.94
2023-04-01T02:31:08.104Z,1.49
2023-04-01T02:31:39.582Z,1.01
2023-04-01T02:32:11.133Z,1.14
2023-04-01T02:32:42.603Z,0.68
2023-04-01T02:33:14.110Z,0.92
2023-04-01T02:33:45.571Z,0.88
2023-04-01T02:34:16.960Z,1.07
2023-04-01T02:34:48.355Z,0.83
2023-04-01T02:35:19.755Z,1.15
2023-04-01T02:35:51.171Z,0.97
2023-04-01T02:36:22.639Z,1.25
2023-04-01T02:36:54.046Z,1.10
2023-04-01T02:37:25.471Z,0.74
2023-04-01T02:37:56.887Z,1.07
2023-04-01T02:38:28.311Z,0.97
2023-04-01T02:38:59.730Z,1.20
2023-04-01T02:39:31.128Z,1.00
2023-04-01T02:40:02.538Z,1.07
2023-04-01T02:40:33.950Z,1.00
2023-04-01T02:41:05.347Z,0.96
2023-04-01T02:41:36.768Z,0.87
2023-04-01T02:42:08.195Z,1.28
2023-04-01T02:42:39.627Z,0.94
2023-04-01T02:43:11.023Z,0.75
2023-04-01T02:43:42.450Z,0.82
2023-04-01T02:44:13.883Z,0.82
2023-04-01T02:44:45.351Z,1.12
2023-04-01T02:45:16.772Z,0.86
2023-04-01T02:45:48.200Z,0.93
2023-04-01T02:46:19.715Z,1.08
2023-04-01T02:46:51.206Z,1.09
2023-04-01T02:47:22.682Z,0.93
2023-04-01T02:47:54.270Z,0.84
2023-04-01T02:48:25.737Z,0.81
2023-04-01T02:48:57.129Z,0.85
2023-04-01T02:49:28.542Z,1.13
2023-04-01T02:49:59.975Z,1.16
2023-04-01T02:50:31.395Z,1.51
2023-04-01T02:51:02.856Z,1.10
2023-04-01T02:51:34.273Z,0.98
2023-04-01T02:52:05.672Z,0.82
2023-04-01T02:52:37.093Z,1.06
2023-04-01T02:53:08.490Z,0.83
2023-04-01T02:53:39.879Z,0.86
2023-04-01T02:54:11.272Z,1.12
2023-04-01T02:54:42.686Z,1.25
2023-04-01T02:55:14.079Z,0.82
2023-04-01T02:55:45.506Z,0.84
2023-04-01T02:56:16.975Z,1.03
2023-04-01T02:56:48.396Z,0.70
2023-04-01T02:57:19.875Z,1.11
2023-04-01T02:57:51.326Z,0.62
2023-04-01T02:58:22.756Z,0.76
2023-04-01T02:58:54.164Z,0.85
2023-04-01T02:59:25.584Z,0.85
2023-04-01T02:59:56.992Z,0.94
2023-04-01T03:00:28.386Z,0.69
2023-04-01T03:00:59.871Z,1.34
2023-04-01T03:01:31.359Z,0.97
2023-04-01T03:02:02.893Z,0.84
2023-04-01T03:02:34.384Z,0.90
2023-04-01T03:03:05.877Z,0.82
2023-04-01T03:03:37.424Z,0.86
2023-04-01T03:04:08.863Z,0.86
2023-04-01T03:04:40.263Z,0.99
2023-04-01T03:05:11.691Z,0.87
2023-04-01T03:05:43.097Z,0.77
2023-04-01T03:06:14.498Z,1.06
2023-04-01T03:06:45.907Z,0.88
2023-04-01T03:07:17.345Z,1.01
2023-04-01T03:07:48.764Z,0.95
2023-04-01T03:08:20.220Z,0.79
2023-04-01T03:08:51.606Z,0.97
2023-04-01T03:09:23.002Z,0.99
2023-04-01T03:09:54.404Z,1.02
2023-04-01T03:10:25.806Z,0.83
2023-04-01T03:10:59.063Z,0.79
2023-04-01T03:11:30.983Z,0.92
2023-04-01T03:12:02.388Z,0.83
2023-04-01T03:12:33.785Z,0.99
2023-04-01T03:13:05.196Z,0.46
2023-04-01T03:13:36.611Z,1.14
2023-04-01T03:14:08.035Z,1.08
2023-04-01T03:14:39.442Z,0.95
2023-04-01T03:15:11.726Z,1.00
2023-04-01T03:15:43.184Z,0.95
2023-04-01T03:16:14.620Z,0.91
2023-04-01T03:16:46.139Z,1.12
2023-04-01T03:17:17.570Z,0.96
2023-04-01T03:17:49.011Z,0.67
2023-04-01T03:18:20.556Z,0.82
2023-04-01T03:18:51.967Z,0.80
2023-04-01T03:19:23.362Z,0.63
2023-04-01T03:19:54.810Z,0.86
2023-04-01T03:20:26.204Z,0.89
2023-04-01T03:20:57.629Z,0.67
2023-04-01T03:21:29.067Z,0.90
2023-04-01T03:22:00.486Z,0.83
2023-04-01T03:22:31.884Z,0.74
2023-04-01T03:23:03.293Z,0.52
2023-04-01T03:23:34.712Z,0.53
2023-04-01T03:24:06.124Z,1.22
2023-04-01T03:24:37.541Z,0.86
2023-04-01T03:25:08.958Z,0.66
2023-04-01T03:25:40.369Z,1.02
2023-04-01T03:26:11.781Z,0.63
2023-04-01T03:26:43.196Z,0.73
2023-04-01T03:27:14.592Z,0.60
2023-04-01T03:27:46.008Z,0.82
2023-04-01T03:28:17.419Z,1.13
2023-04-01T03:28:48.838Z,0.75
2023-04-01T03:29:20.233Z,0.80
2023-04-01T03:29:51.693Z,0.81
2023-04-01T03:30:23.201Z,0.88
2023-04-01T03:30:54.650Z,0.70
2023-04-01T03:31:26.158Z,0.79
2023-04-01T03:31:57.603Z,0.62
2023-04-01T03:32:29.045Z,0.65
2023-04-01T03:33:00.568Z,0.99
2023-04-01T03:33:32.023Z,0.94
2023-04-01T03:34:03.466Z,0.89
2023-04-01T03:34:34.865Z,0.88
2023-04-01T03:35:06.279Z,0.79
2023-04-01T03:35:37.695Z,0.72
2023-04-01T03:36:09.100Z,0.68
2023-04-01T03:36:40.548Z,0.85
2023-04-01T03:37:12.012Z,0.66
2023-04-01T03:37:43.441Z,0.86
2023-04-01T03:38:14.853Z,0.74
2023-04-01T03:38:46.293Z,0.89
2023-04-01T03:39:17.687Z,0.92
2023-04-01T03:39:49.089Z,0.82
2023-04-01T03:40:20.510Z,0.85
2023-04-01T03:40:51.911Z,0.60
2023-04-01T03:41:23.332Z,0.72
2023-04-01T03:41:54.748Z,0.96
2023-04-01T03:42:26.181Z,0.69
2023-04-01T03:42:57.697Z,0.88
2023-04-01T03:43:29.158Z,0.71
2023-04-01T03:44:00.602Z,0.81
2023-04-01T03:44:32.089Z,0.84
2023-04-01T03:45:03.522Z,0.55
2023-04-01T03:45:35.052Z,1.05
2023-04-01T03:46:06.530Z,0.72
2023-04-01T03:46:38.126Z,0.79
2023-04-01T03:47:09.713Z,0.58
2023-04-01T03:47:41.152Z,0.67
2023-04-01T03:48:12.683Z,0.94
2023-04-01T03:48:44.105Z,0.60
2023-04-01T03:49:15.546Z,0.85
2023-04-01T03:49:46.969Z,1.00
2023-04-01T03:50:18.371Z,0.66
2023-04-01T03:50:49.775Z,0.44
2023-04-01T03:51:21.172Z,1.07
2023-04-01T03:51:52.593Z,0.83
2023-04-01T03:52:24.012Z,0.73
2023-04-01T03:52:55.422Z,0.93
2023-04-01T03:53:26.864Z,1.11
2023-04-01T03:53:58.301Z,0.56
2023-04-01T03:54:29.718Z,0.71
2023-04-01T03:55:01.168Z,0.62
2023-04-01T03:55:32.751Z,0.81
2023-04-01T03:56:04.283Z,0.98
2023-04-01T03:56:35.686Z,0.94
2023-04-01T03:57:07.189Z,0.79
2023-04-01T03:57:38.647Z,0.69
2023-04-01T03:58:10.060Z,0.60
2023-04-01T03:58:41.468Z,0.68
2023-04-01T03:59:12.898Z,0.73
2023-04-01T03:59:44.315Z,0.97
2023-04-01T04:00:15.708Z,0.91
2023-04-01T04:00:47.135Z,0.69
2023-04-01T04:01:18.557Z,0.57
2023-04-01T04:01:49.955Z,0.81
2023-04-01T04:02:21.437Z,0.81
2023-04-01T04:02:52.969Z,0.39
2023-04-01T04:03:24.469Z,0.74
2023-04-01T04:03:56.019Z,0.73
2023-04-01T04:04:27.597Z,0.63
2023-04-01T04:04:59.024Z,0.92
2023-04-01T04:05:30.515Z,0.88
2023-04-01T04:06:01.935Z,0.56
2023-04-01T04:06:33.339Z,0.62
2023-04-01T04:07:04.760Z,0.56
2023-04-01T04:07:36.174Z,0.84
2023-04-01T04:08:07.599Z,0.80
2023-04-01T04:08:38.993Z,0.83
2023-04-01T04:09:10.390Z,0.72
2023-04-01T04:09:41.837Z,0.62
2023-04-01T04:10:13.370Z,0.73
2023-04-01T04:10:44.789Z,0.89
2023-04-01T04:11:16.201Z,0.65
2023-04-01T04:11:47.607Z,0.59
2023-04-01T04:12:19.008Z,0.65
2023-04-01T04:12:50.409Z,0.69
2023-04-01T04:13:21.809Z,0.61
2023-04-01T04:13:53.252Z,0.85
2023-04-01T04:14:24.659Z,0.71
2023-04-01T04:14:56.139Z,0.87
2023-04-01T04:15:27.569Z,0.91
2023-04-01T04:15:59.075Z,0.78
2023-04-01T04:16:30.535Z,0.71
2023-04-01T04:17:02.037Z,0.74
2023-04-01T04:17:33.481Z,0.60
2023-04-01T04:18:04.946Z,0.84
2023-04-01T04:18:36.360Z,0.66
2023-04-01T04:19:07.753Z,0.77
2023-04-01T04:19:39.174Z,0.41
2023-04-01T04:20:10.610Z,0.64
2023-04-01T04:20:42.030Z,0.41
2023-04-01T04:21:13.418Z,0.98
2023-04-01T04:21:44.799Z,0.51
2023-04-01T04:22:16.218Z,0.86
2023-04-01T04:22:47.635Z,0.98
2023-04-01T04:23:19.108Z,0.71
2023-04-01T04:23:50.507Z,0.68
2023-04-01T04:24:21.902Z,0.51
2023-04-01T04:24:53.317Z,0.58
2023-04-01T04:25:24.762Z,0.57
2023-04-01T04:25:56.177Z,0.83
2023-04-01T04:26:27.591Z,0.77
2023-04-01T04:26:58.982Z,0.76
2023-04-01T04:27:30.406Z,0.81
2023-04-01T04:28:01.820Z,0.71
2023-04-01T04:28:33.243Z,0.67
2023-04-01T04:29:04.670Z,0.65
2023-04-01T04:29:36.070Z,0.69
2023-04-01T04:30:07.499Z,0.57
2023-04-01T04:30:38.899Z,0.82
2023-04-01T04:31:10.341Z,0.85
2023-04-01T04:31:41.845Z,0.71
2023-04-01T04:32:13.268Z,0.49
2023-04-01T04:32:44.717Z,0.60
2023-04-01T04:33:16.132Z,0.44
2023-04-01T04:33:47.528Z,0.67
2023-04-01T04:34:18.954Z,0.56
2023-04-01T04:34:50.356Z,0.81
2023-04-01T04:35:21.787Z,0.73
2023-04-01T04:35:53.225Z,0.52
2023-04-01T04:36:24.767Z,0.78
2023-04-01T04:36:56.182Z,0.68
2023-04-01T04:37:27.581Z,0.59
2023-04-01T04:37:58.969Z,0.66
2023-04-01T04:38:30.368Z,0.70
2023-04-01T04:39:01.780Z,0.63
2023-04-01T04:39:33.214Z,0.49
2023-04-01T04:40:04.654Z,0.74
2023-04-01T04:40:36.115Z,0.82
2023-04-01T04:41:07.506Z,0.54
2023-04-01T04:41:38.910Z,0.81
2023-04-01T04:42:10.309Z,0.76
2023-04-01T04:42:41.712Z,0.61
2023-04-01T04:43:13.127Z,0.69
2023-04-01T04:43:44.528Z,0.82
2023-04-01T04:44:16.008Z,0.49
2023-04-01T04:44:47.431Z,0.76
2023-04-01T04:45:18.880Z,0.63
2023-04-01T04:45:50.313Z,0.58
2023-04-01T04:46:21.720Z,0.71
2023-04-01T04:46:53.205Z,0.67
2023-04-01T04:47:24.682Z,0.84
2023-04-01T04:47:56.158Z,0.76
2023-04-01T04:48:27.601Z,0.77
2023-04-01T04:48:59.011Z,0.95
2023-04-01T04:49:30.431Z,0.58
2023-04-01T04:50:01.828Z,0.51
2023-04-01T04:50:33.269Z,0.63
2023-04-01T04:51:04.677Z,0.74
2023-04-01T04:51:36.076Z,0.68
2023-04-01T04:52:07.507Z,0.46
2023-04-01T04:52:38.931Z,0.68
2023-04-01T04:53:10.338Z,0.58
2023-04-01T04:53:41.747Z,0.64
2023-04-01T04:54:13.140Z,0.65
2023-04-01T04:54:44.551Z,0.58
2023-04-01T04:55:16.009Z,0.59
2023-04-01T04:55:47.552Z,0.64
2023-04-01T04:56:18.987Z,0.75
2023-04-01T04:56:50.481Z,0.66
2023-04-01T04:57:21.947Z,0.55
2023-04-01T04:57:53.366Z,0.65
2023-04-01T04:58:24.777Z,0.65
2023-04-01T04:58:56.179Z,0.60
2023-04-01T04:59:27.612Z,0.56
2023-04-01T04:59:59.025Z,0.60
2023-04-01T05:00:30.430Z,0.70
2023-04-01T05:01:01.901Z,0.49
2023-04-01T05:01:33.381Z,0.50
2023-04-01T05:02:04.875Z,0.68
2023-04-01T05:02:36.397Z,0.72
2023-04-01T05:03:07.975Z,0.69
2023-04-01T05:03:39.589Z,0.77
2023-04-01T05:04:11.046Z,0.60
2023-04-01T05:04:42.439Z,0.44
2023-04-01T05:05:13.857Z,0.58
2023-04-01T05:05:45.265Z,0.66
2023-04-01T05:06:16.716Z,0.81
2023-04-01T05:06:48.125Z,0.47
2023-04-01T05:07:19.561Z,0.81
2023-04-01T05:07:50.986Z,0.66
2023-04-01T05:08:22.379Z,0.55
2023-04-01T05:08:53.796Z,0.60
2023-04-01T05:09:25.205Z,0.75
2023-04-01T05:09:56.619Z,0.68
2023-04-01T05:10:28.034Z,0.53
2023-04-01T05:10:59.459Z,0.51
2023-04-01T05:11:30.881Z,0.45
2023-04-01T05:12:02.313Z,0.72
2023-04-01T05:12:33.733Z,0.67
2023-04-01T05:13:05.187Z,0.32
2023-04-01T05:13:36.617Z,0.68
2023-04-01T05:14:08.024Z,0.55
2023-04-01T05:14:39.432Z,0.56
2023-04-01T05:15:10.836Z,0.37
2023-04-01T05:15:42.245Z,0.41
2023-04-01T05:16:13.734Z,0.58
2023-04-01T05:16:45.226Z,0.95
2023-04-01T05:17:16.686Z,0.78
2023-04-01T05:17:48.137Z,0.55
2023-04-01T05:18:19.569Z,0.67
2023-04-01T05:18:50.990Z,0.61
2023-04-01T05:19:22.412Z,0.76
2023-04-01T05:19:53.806Z,0.46
2023-04-01T05:20:25.234Z,0.45
2023-04-01T05:20:56.659Z,0.74
2023-04-01T05:21:28.116Z,0.32
2023-04-01T05:21:59.510Z,0.62
2023-04-01T05:22:30.936Z,0.64
2023-04-01T05:23:02.359Z,0.50
2023-04-01T05:23:33.768Z,0.62
2023-04-01T05:24:05.170Z,0.58
2023-04-01T05:24:36.587Z,0.40
2023-04-01T05:25:07.992Z,0.39
2023-04-01T05:25:39.387Z,0.34
2023-04-01T05:26:10.822Z,0.47
2023-04-01T05:26:42.239Z,0.55
2023-04-01T05:27:13.657Z,0.70
2023-04-01T05:27:45.057Z,0.60
2023-04-01T05:28:16.524Z,0.65
2023-04-01T05:28:47.959Z,0.70
2023-04-01T05:29:19.378Z,0.51
2023-04-01T05:29:50.785Z,0.53
2023-04-01T05:30:22.191Z,0.72
2023-04-01T05:30:53.642Z,0.66
2023-04-01T05:31:25.380Z,0.57
2023-04-01T05:31:56.809Z,0.70
2023-04-01T05:32:28.240Z,0.67
2023-04-01T05:32:59.804Z,0.98
2023-04-01T05:33:31.257Z,0.76
2023-04-01T05:34:02.710Z,0.61
2023-04-01T05:34:34.121Z,0.68
2023-04-01T05:35:05.552Z,0.60
2023-04-01T05:35:37.061Z,0.67
2023-04-01T05:36:08.573Z,0.52
2023-04-01T05:36:40.032Z,0.44
2023-04-01T05:37:11.441Z,0.48
2023-04-01T05:37:42.863Z,0.55
2023-04-01T05:38:14.280Z,0.58
2023-04-01T05:38:45.678Z,0.73
2023-04-01T05:39:17.075Z,0.67
2023-04-01T05:39:48.496Z,0.57
2023-04-01T05:40:19.920Z,0.97
2023-04-01T05:40:51.338Z,0.57
2023-04-01T05:41:22.751Z,0.41
2023-04-01T05:41:54.215Z,0.74
2023-04-01T05:42:25.610Z,0.62
2023-04-01T05:42:57.014Z,0.61
2023-04-01T05:43:28.424Z,0.69
2023-04-01T05:43:59.823Z,0.46
2023-04-01T05:44:31.227Z,0.67
2023-04-01T05:45:02.647Z,0.64
2023-04-01T05:45:34.345Z,0.59
2023-04-01T05:46:06.018Z,0.53
2023-04-01T05:46:37.506Z,0.60
2023-04-01T05:47:09.055Z,0.50
2023-04-01T05:47:40.489Z,0.51
2023-04-01T05:48:11.920Z,0.68
2023-04-01T05:48:43.335Z,0.59
2023-04-01T05:49:14.754Z,0.82
2023-04-01T05:49:46.156Z,0.53
2023-04-01T05:50:17.573Z,0.54
2023-04-01T05:50:48.979Z,0.40
2023-04-01T05:51:20.378Z,0.46
2023-04-01T05:51:51.790Z,0.52
2023-04-01T05:52:23.216Z,0.45
2023-04-01T05:52:54.612Z,0.50
2023-04-01T05:53:26.033Z,0.38
2023-04-01T05:53:57.444Z,0.53
2023-04-01T05:54:28.854Z,0.80
2023-04-01T05:55:00.260Z,0.55
2023-04-01T05:55:31.995Z,0.42
2023-04-01T05:56:03.663Z,0.49
2023-04-01T05:56:35.360Z,0.48
2023-04-01T05:57:06.868Z,0.46
2023-04-01T05:57:38.353Z,0.87
2023-04-01T05:58:09.795Z,0.43
2023-04-01T05:58:41.229Z,0.56
2023-04-01T05:59:12.652Z,0.80
2023-04-01T05:59:44.065Z,0.62
2023-04-01T06:00:15.505Z,0.61
2023-04-01T06:00:47.917Z,0.39
2023-04-01T06:01:19.425Z,0.57
2023-04-01T06:01:50.842Z,0.46
2023-04-01T06:02:22.342Z,0.69
2023-04-01T06:02:53.909Z,0.61
2023-04-01T06:03:25.641Z,0.54
2023-04-01T06:03:57.314Z,0.49
2023-04-01T06:04:28.937Z,0.58
2023-04-01T06:05:00.338Z,0.67
2023-04-01T06:05:32.176Z,0.55
2023-04-01T06:06:03.717Z,0.52
2023-04-01T06:06:35.146Z,0.55
2023-04-01T06:07:06.561Z,0.60
2023-04-01T06:07:37.974Z,0.72
2023-04-01T06:08:09.397Z,0.70
2023-04-01T06:08:40.815Z,0.52
2023-04-01T06:09:12.222Z,0.75
2023-04-01T06:09:43.617Z,0.70
2023-04-01T06:10:15.019Z,0.63
2023-04-01T06:10:46.423Z,0.51
2023-04-01T06:11:17.844Z,0.48
2023-04-01T06:11:49.252Z,0.64
2023-04-01T06:12:21.052Z,0.65
2023-04-01T06:12:52.927Z,0.55
2023-04-01T06:13:24.911Z,0.66
2023-04-01T06:13:56.738Z,0.73
2023-04-01T06:14:28.646Z,0.62
2023-04-01T06:15:00.524Z,0.53
2023-04-01T06:15:32.671Z,0.36
2023-04-01T06:16:04.458Z,0.74
2023-04-01T06:16:35.944Z,0.74
2023-04-01T06:17:07.381Z,0.75
2023-04-01T06:17:38.857Z,0.51
2023-04-01T06:18:10.308Z,0.50
2023-04-01T06:18:41.778Z,0.43
2023-04-01T06:19:13.215Z,0.46
2023-04-01T06:19:44.616Z,0.57
2023-04-01T06:20:16.025Z,0.49
2023-04-01T06:20:47.424Z,0.57
2023-04-01T06:21:18.878Z,0.91
2023-04-01T06:21:50.281Z,0.74
2023-04-01T06:22:21.679Z,0.59
2023-04-01T06:22:53.128Z,0.72
2023-04-01T06:23:24.567Z,0.39
2023-04-01T06:23:55.999Z,0.49
2023-04-01T06:24:27.551Z,0.35
2023-04-01T06:24:58.977Z,0.44
2023-04-01T06:25:30.378Z,0.68
2023-04-01T06:26:01.820Z,0.52
2023-04-01T06:26:33.257Z,0.59
2023-04-01T06:27:04.676Z,0.70
2023-04-01T06:27:36.131Z,0.72
2023-04-01T06:28:09.010Z,0.63
2023-04-01T06:28:40.692Z,0.54
2023-04-01T06:29:12.093Z,0.46
2023-04-01T06:29:43.498Z,0.63
2023-04-01T06:30:14.955Z,0.41
2023-04-01T06:30:46.349Z,0.52
2023-04-01T06:31:17.877Z,0.56
2023-04-01T06:31:49.484Z,0.60
2023-04-01T06:32:21.017Z,0.65
2023-04-01T06:32:52.678Z,0.58
2023-04-01T06:33:24.185Z,0.77
2023-04-01T06:33:55.603Z,0.60
2023-04-01T06:34:27.013Z,0.49
2023-04-01T06:34:58.427Z,0.59
2023-04-01T06:35:29.872Z,0.52
2023-04-01T06:36:01.369Z,0.71
2023-04-01T06:36:32.841Z,0.56
2023-04-01T06:37:04.298Z,0.47
2023-04-01T06:37:35.704Z,0.37
2023-04-01T06:38:07.125Z,0.50
2023-04-01T06:38:38.558Z,0.62
2023-04-01T06:39:11.183Z,0.51
2023-04-01T06:39:42.811Z,0.42
2023-04-01T06:40:14.228Z,0.57
2023-04-01T06:40:45.659Z,0.59
2023-04-01T06:41:17.067Z,0.75
2023-04-01T06:41:48.525Z,0.71
2023-04-01T06:42:19.925Z,0.76
2023-04-01T06:42:51.314Z,0.94
2023-04-01T06:43:22.718Z,0.68
2023-04-01T06:43:54.114Z,0.72
2023-04-01T06:44:25.553Z,0.92
2023-04-01T06:44:56.974Z,0.73
2023-04-01T06:45:28.426Z,0.69
2023-04-01T06:45:59.900Z,0.51
2023-04-01T06:46:31.533Z,0.54
2023-04-01T06:47:02.980Z,0.83
2023-04-01T06:47:34.420Z,0.79
2023-04-01T06:48:05.961Z,0.54
2023-04-01T06:48:37.388Z,0.66
2023-04-01T06:49:08.784Z,0.73
2023-04-01T06:49:40.206Z,0.51
2023-04-01T06:50:11.619Z,0.77
2023-04-01T06:50:43.045Z,0.92
2023-04-01T06:51:14.517Z,0.62
2023-04-01T06:51:45.924Z,1.06
2023-04-01T06:52:17.329Z,0.64
2023-04-01T06:52:48.759Z,0.77
2023-04-01T06:53:20.157Z,0.58
2023-04-01T06:53:51.579Z,0.64
2023-04-01T06:54:23.020Z,0.82
2023-04-01T06:54:54.438Z,0.50
2023-04-01T06:55:25.838Z,0.67
2023-04-01T06:55:57.261Z,0.87
2023-04-01T06:56:28.713Z,0.66
2023-04-01T06:57:00.215Z,0.58
2023-04-01T06:57:31.778Z,0.59
2023-04-01T06:58:03.308Z,0.80
2023-04-01T06:58:34.712Z,0.73
2023-04-01T06:59:06.117Z,0.65